createdAt,value
2023-04-07T00:01:27.643Z,94600.78
2023-04-07T00:03:56.939Z,94598.94
2023-04-07T00:06:26.630Z,94599.94
2023-04-07T00:08:55.969Z,94606.41
2023-04-07T00:11:24.978Z,94604.34
2023-04-07T00:13:54.146Z,94600.09
2023-04-07T00:16:23.492Z,94597.28
2023-04-07T00:18:53.977Z,94594.88
2023-04-07T00:21:23.017Z,94596.63
2023-04-07T00:23:52.970Z,94596.44
2023-04-07T00:26:22.000Z,94593.81
2023-04-07T00:28:51.317Z,94582.56
2023-04-07T00:31:20.451Z,94590.84
2023-04-07T00:33:49.845Z,94594.63
2023-04-07T00:36:20.380Z,94589.03
2023-04-07T00:38:49.373Z,94595.63
2023-04-07T00:41:18.940Z,94585.22
2023-04-07T00:43:47.992Z,94591.88
2023-04-07T00:46:17.437Z,94580.63
2023-04-07T00:48:46.998Z,94584.63
2023-04-07T00:51:17.335Z,94583.19
2023-04-07T00:53:47.734Z,94591.09
2023-04-07T00:56:17.035Z,94583.00
2023-04-07T00:58:46.054Z,94588.41
2023-04-07T01:01:20.816Z,94586.44
2023-04-07T01:03:59.758Z,94580.47
2023-04-07T01:06:34.921Z,94591.72
2023-04-07T01:09:09.284Z,94584.63
2023-04-07T01:11:44.339Z,94584.84
2023-04-07T01:14:20.355Z,94575.06
2023-04-07T01:16:59.409Z,94580.22
2023-04-07T01:19:35.760Z,94582.28
2023-04-07T01:22:09.569Z,94585.69
2023-04-07T01:25:30.833Z,94586.13
2023-04-07T01:28:17.444Z,94588.03
2023-04-07T01:30:49.446Z,94582.56
2023-04-07T01:33:19.807Z,94579.03
2023-04-07T01:35:51.629Z,94576.06
2023-04-07T01:38:22.538Z,94573.25
2023-04-07T01:40:52.368Z,94577.03
2023-04-07T01:43:22.972Z,94584.31
2023-04-07T01:45:55.194Z,94580.47
2023-04-07T01:48:24.625Z,94578.88
2023-04-07T01:50:54.273Z,94575.16
2023-04-07T01:53:24.728Z,94577.28
2023-04-07T01:55:55.069Z,94577.56
2023-04-07T01:58:24.317Z,94567.06
2023-04-07T02:00:55.032Z,94569.03
2023-04-07T02:03:33.087Z,94571.28
2023-04-07T02:06:08.820Z,94571.53
2023-04-07T02:08:40.781Z,94562.72
2023-04-07T02:11:12.576Z,94570.56
2023-04-07T02:13:43.922Z,94564.16
2023-04-07T02:16:37.089Z,94558.13
2023-04-07T02:19:07.010Z,94569.97
2023-04-07T02:21:36.920Z,94557.78
2023-04-07T02:24:07.986Z,94554.78
2023-04-07T02:26:37.564Z,94560.75
2023-04-07T02:29:07.200Z,94563.81
2023-04-07T02:31:37.751Z,94554.91
2023-04-07T02:34:06.843Z,94561.38
2023-04-07T02:36:35.802Z,94556.97
2023-04-07T02:39:05.216Z,94555.78
2023-04-07T02:41:34.225Z,94562.00
2023-04-07T02:44:03.315Z,94556.97
2023-04-07T02:46:32.335Z,94555.34
2023-04-07T02:49:03.104Z,94561.56
2023-04-07T02:51:33.349Z,94564.16
2023-04-07T02:54:02.579Z,94563.94
2023-04-07T02:56:31.702Z,94559.94
2023-04-07T02:59:00.815Z,94567.16
2023-04-07T03:01:30.899Z,94568.94
2023-04-07T03:04:00.224Z,94569.28
2023-04-07T03:06:31.873Z,94567.53
2023-04-07T03:09:09.562Z,94562.66
2023-04-07T03:11:41.879Z,94565.78
2023-04-07T03:14:14.488Z,94566.41
2023-04-07T03:16:49.692Z,94560.19
2023-04-07T03:19:19.219Z,94557.19
2023-04-07T03:21:52.694Z,94552.56
2023-04-07T03:24:21.774Z,94564.88
2023-04-07T03:26:51.582Z,94556.63
2023-04-07T03:29:29.472Z,94561.22
2023-04-07T03:31:58.641Z,94569.69
2023-04-07T03:34:27.629Z,94568.50
2023-04-07T03:37:00.029Z,94567.56
2023-04-07T03:39:31.324Z,94574.19
2023-04-07T03:42:03.022Z,94570.59
2023-04-07T03:44:34.626Z,94576.69
2023-04-07T03:47:03.837Z,94584.09
2023-04-07T03:49:32.927Z,94582.31
2023-04-07T03:52:06.685Z,94578.84
2023-04-07T03:54:36.886Z,94586.91
2023-04-07T03:57:06.072Z,94578.31
2023-04-07T03:59:40.212Z,94589.38
2023-04-07T04:02:09.682Z,94584.34
2023-04-07T04:04:39.608Z,94596.41
2023-04-07T04:07:12.049Z,94582.81
2023-04-07T04:09:52.983Z,94589.13
2023-04-07T04:12:22.093Z,94589.38
2023-04-07T04:15:02.510Z,94593.00
2023-04-07T04:17:33.078Z,94592.63
2023-04-07T04:20:02.337Z,94591.63
2023-04-07T04:22:44.254Z,94597.69
2023-04-07T04:25:14.244Z,94595.06
2023-04-07T04:27:48.407Z,94605.69
2023-04-07T04:30:23.816Z,94599.91
2023-04-07T04:32:56.525Z,94606.41
2023-04-07T04:35:34.581Z,94604.16
2023-04-07T04:38:12.627Z,94605.59
2023-04-07T04:40:46.676Z,94609.25
2023-04-07T04:43:19.004Z,94605.44
2023-04-07T04:45:48.885Z,94605.84
2023-04-07T04:48:20.725Z,94611.16
2023-04-07T04:50:50.038Z,94619.22
2023-04-07T04:53:20.590Z,94618.84
2023-04-07T04:55:56.628Z,94619.19
2023-04-07T04:58:36.966Z,94626.84
2023-04-07T05:01:06.542Z,94620.06
2023-04-07T05:03:44.099Z,94628.75
2023-04-07T05:06:21.809Z,94626.31
2023-04-07T05:08:54.987Z,94637.91
2023-04-07T05:11:31.554Z,94630.94
2023-04-07T05:14:00.584Z,94633.13
2023-04-07T05:16:29.797Z,94636.16
2023-04-07T05:18:59.016Z,94639.97
2023-04-07T05:21:29.821Z,94634.56
2023-04-07T05:24:04.990Z,94645.38
2023-04-07T05:26:36.118Z,94640.00
2023-04-07T05:29:07.141Z,94640.84
2023-04-07T05:31:37.642Z,94647.91
2023-04-07T05:34:11.356Z,94643.50
2023-04-07T05:36:46.860Z,94637.47
2023-04-07T05:39:17.597Z,94647.97
2023-04-07T05:41:47.900Z,94643.56
2023-04-07T05:44:17.531Z,94654.25
2023-04-07T05:46:47.445Z,94648.00
2023-04-07T05:49:19.924Z,94656.88
2023-04-07T05:51:55.052Z,94654.25
2023-04-07T05:54:26.242Z,94645.59
2023-04-07T05:56:56.593Z,94650.81
2023-04-07T05:59:26.749Z,94649.59
2023-04-07T06:01:56.020Z,94655.88
2023-04-07T06:04:25.543Z,94656.44
2023-04-07T06:06:55.602Z,94643.16
2023-04-07T06:09:26.261Z,94646.75
2023-04-07T06:11:55.280Z,94648.97
2023-04-07T06:14:24.459Z,94651.19
2023-04-07T06:16:53.528Z,94655.19
2023-04-07T06:19:22.627Z,94653.53
2023-04-07T06:21:51.838Z,94651.50
2023-04-07T06:24:22.886Z,94652.31
2023-04-07T06:26:53.992Z,94656.53
2023-04-07T06:29:23.471Z,94657.91
2023-04-07T06:31:52.843Z,94666.56
2023-04-07T06:34:21.954Z,94658.13
2023-04-07T06:36:51.247Z,94660.50
2023-04-07T06:39:20.418Z,94662.25
2023-04-07T06:41:49.504Z,94662.25
2023-04-07T06:44:20.058Z,94663.88
2023-04-07T06:46:50.694Z,94661.41
2023-04-07T06:49:19.767Z,94664.88
2023-04-07T06:51:48.947Z,94664.38
2023-04-07T06:54:18.230Z,94673.72
2023-04-07T06:56:47.231Z,94675.84
2023-04-07T06:59:16.414Z,94667.56
2023-04-07T07:01:47.169Z,94680.97
2023-04-07T07:04:16.837Z,94675.53
2023-04-07T07:06:46.048Z,94673.00
2023-04-07T07:09:15.094Z,94686.50
2023-04-07T07:11:44.163Z,94684.72
2023-04-07T07:14:13.280Z,94686.09
2023-04-07T07:16:42.586Z,94689.50
2023-04-07T07:19:13.119Z,94685.81
2023-04-07T07:21:42.336Z,94695.44
2023-04-07T07:24:11.328Z,94693.22
2023-04-07T07:26:43.467Z,94691.16
2023-04-07T07:29:13.206Z,94692.16
2023-04-07T07:31:47.096Z,94701.91
2023-04-07T07:34:17.660Z,94698.53
2023-04-07T07:36:46.805Z,94693.59
2023-04-07T07:39:16.012Z,94693.53
2023-04-07T07:41:45.572Z,94695.88
2023-04-07T07:44:14.725Z,94696.88
2023-04-07T07:46:43.860Z,94700.72
2023-04-07T07:49:13.058Z,94699.91
2023-04-07T07:51:43.771Z,94689.78
2023-04-07T07:54:12.811Z,94697.97
2023-04-07T07:56:41.895Z,94699.56
2023-04-07T07:59:10.898Z,94704.75
2023-04-07T08:01:40.004Z,94704.53
2023-04-07T08:04:09.212Z,94710.47
2023-04-07T08:06:38.376Z,94705.59
2023-04-07T08:09:08.930Z,94712.50
2023-04-07T08:11:38.005Z,94715.34
2023-04-07T08:14:08.644Z,94707.91
2023-04-07T08:16:39.249Z,94703.16
2023-04-07T08:19:08.597Z,94706.97
2023-04-07T08:21:37.659Z,94709.81
2023-04-07T08:24:08.822Z,94709.88
2023-04-07T08:26:37.823Z,94713.56
2023-04-07T08:29:06.824Z,94710.78
2023-04-07T08:31:36.113Z,94713.03
2023-04-07T08:34:05.260Z,94714.22
2023-04-07T08:36:34.374Z,94716.47
2023-04-07T08:39:05.906Z,94715.47
2023-04-07T08:41:39.485Z,94708.91
2023-04-07T08:44:09.697Z,94707.78
2023-04-07T08:46:41.308Z,94709.38
2023-04-07T08:49:14.490Z,94713.16
2023-04-07T08:51:46.772Z,94713.31
2023-04-07T08:54:19.172Z,94709.47
2023-04-07T08:56:49.947Z,94712.84
2023-04-07T08:59:19.094Z,94723.53
2023-04-07T09:01:49.063Z,94719.81
2023-04-07T09:04:19.208Z,94723.16
2023-04-07T09:06:48.383Z,94724.66
2023-04-07T09:09:17.446Z,94726.00
2023-04-07T09:11:46.579Z,94732.03
2023-04-07T09:14:18.908Z,94728.59
2023-04-07T09:16:48.932Z,94724.19
2023-04-07T09:19:18.090Z,94725.09
2023-04-07T09:21:51.519Z,94725.81
2023-04-07T09:24:25.374Z,94724.81
2023-04-07T09:27:11.828Z,94720.16
2023-04-07T09:29:44.328Z,94719.94
2023-04-07T09:32:14.208Z,94714.81
2023-04-07T09:34:43.578Z,94719.63
2023-04-07T09:37:24.249Z,94725.81
2023-04-07T09:39:54.955Z,94728.25
2023-04-07T09:42:24.094Z,94724.59
2023-04-07T09:44:54.852Z,94723.63
2023-04-07T09:47:29.461Z,94729.16
2023-04-07T09:49:59.769Z,94720.19
2023-04-07T09:52:53.284Z,94730.91
2023-04-07T09:55:23.799Z,94729.97
2023-04-07T09:57:55.574Z,94734.34
2023-04-07T10:00:27.180Z,94730.78
2023-04-07T10:02:58.350Z,94731.25
2023-04-07T10:05:29.274Z,94730.16
2023-04-07T10:07:58.804Z,94737.28
2023-04-07T10:10:28.984Z,94739.38
2023-04-07T10:12:59.754Z,94732.94
2023-04-07T10:15:31.958Z,94734.06
2023-04-07T10:18:02.187Z,94732.19
2023-04-07T10:20:31.755Z,94725.91
2023-04-07T10:23:10.775Z,94728.22
2023-04-07T10:25:41.977Z,94726.34
2023-04-07T10:28:13.067Z,94725.38
2023-04-07T10:30:45.669Z,94726.16
2023-04-07T10:33:14.722Z,94734.94
2023-04-07T10:36:06.214Z,94737.38
2023-04-07T10:38:35.728Z,94737.50
2023-04-07T10:41:34.139Z,94733.31
2023-04-07T10:44:07.551Z,94740.19
2023-04-07T10:47:08.140Z,94737.19
2023-04-07T10:49:38.226Z,94743.13
2023-04-07T10:52:26.242Z,94733.19
2023-04-07T10:55:32.067Z,94738.47
2023-04-07T10:58:21.335Z,94739.66
2023-04-07T11:01:22.996Z,94742.25
2023-04-07T11:03:58.847Z,94746.38
2023-04-07T11:06:28.799Z,94744.00
2023-04-07T11:08:57.988Z,94746.13
2023-04-07T11:11:43.177Z,94749.69
2023-04-07T11:14:12.337Z,94745.72
2023-04-07T11:16:46.126Z,94738.88
2023-04-07T11:19:16.578Z,94748.28
2023-04-07T11:21:45.872Z,94753.81
2023-04-07T11:24:37.935Z,94756.66
2023-04-07T11:27:07.602Z,94748.44
2023-04-07T11:29:36.802Z,94756.16
2023-04-07T11:32:06.683Z,94760.50
2023-04-07T11:34:38.294Z,94754.53
2023-04-07T11:37:21.560Z,94762.72
2023-04-07T11:39:54.315Z,94759.22
2023-04-07T11:42:34.051Z,94763.91
2023-04-07T11:45:03.284Z,94758.41
2023-04-07T11:47:39.689Z,94759.16
2023-04-07T11:50:13.138Z,94757.72
2023-04-07T11:52:44.273Z,94761.63
2023-04-07T11:55:22.463Z,94759.16
2023-04-07T11:57:52.807Z,94752.28
2023-04-07T12:00:22.407Z,94762.47
2023-04-07T12:02:51.716Z,94758.81
2023-04-07T12:05:22.592Z,94756.03
2023-04-07T12:07:55.793Z,94756.28
2023-04-07T12:10:25.935Z,94752.41
2023-04-07T12:12:58.171Z,94759.16
2023-04-07T12:15:28.628Z,94754.22
2023-04-07T12:17:57.713Z,94759.25
2023-04-07T12:20:28.878Z,94751.00
2023-04-07T12:22:58.215Z,94754.75
2023-04-07T12:25:27.759Z,94757.69
2023-04-07T12:27:56.842Z,94759.88
2023-04-07T12:30:25.986Z,94759.19
2023-04-07T12:32:55.070Z,94751.50
2023-04-07T12:35:24.271Z,94758.28
2023-04-07T12:37:55.514Z,94758.16
2023-04-07T12:40:24.795Z,94755.97
2023-04-07T12:42:53.817Z,94756.22
2023-04-07T12:45:23.069Z,94760.81
2023-04-07T12:47:52.418Z,94759.53
2023-04-07T12:50:21.517Z,94755.91
2023-04-07T12:52:50.722Z,94756.44
2023-04-07T12:55:21.622Z,94760.09
2023-04-07T12:57:50.688Z,94756.91
2023-04-07T13:00:19.838Z,94754.63
2023-04-07T13:02:49.335Z,94753.78
2023-04-07T13:05:18.902Z,94756.44
2023-04-07T13:07:49.702Z,94754.97
2023-04-07T13:10:19.107Z,94751.75
2023-04-07T13:12:50.072Z,94764.16
2023-04-07T13:15:19.529Z,94759.00
2023-04-07T13:17:48.867Z,94766.44
2023-04-07T13:20:20.701Z,94760.81
2023-04-07T13:23:02.913Z,94764.09
2023-04-07T13:25:36.705Z,94768.69
2023-04-07T13:28:07.520Z,94768.72
2023-04-07T13:30:36.678Z,94763.41
2023-04-07T13:33:05.885Z,94762.69
2023-04-07T13:35:36.185Z,94759.78
2023-04-07T13:38:05.890Z,94773.94
2023-04-07T13:40:34.937Z,94766.56
2023-04-07T13:43:04.370Z,94768.88
2023-04-07T13:45:35.029Z,94778.47
2023-04-07T13:48:04.251Z,94774.25
2023-04-07T13:50:33.448Z,94780.47
2023-04-07T13:53:02.602Z,94792.09
2023-04-07T13:55:31.954Z,94785.00
2023-04-07T13:58:01.044Z,94785.16
2023-04-07T14:00:30.202Z,94784.44
2023-04-07T14:03:00.868Z,94783.34
2023-04-07T14:05:30.164Z,94795.03
2023-04-07T14:07:59.331Z,94787.72
2023-04-07T14:10:29.563Z,94789.63
2023-04-07T14:12:58.648Z,94789.31
2023-04-07T14:15:27.986Z,94798.50
2023-04-07T14:17:57.026Z,94799.91
2023-04-07T14:20:27.947Z,94791.41
2023-04-07T14:22:56.994Z,94787.19
2023-04-07T14:25:26.404Z,94790.19
2023-04-07T14:27:55.562Z,94789.88
2023-04-07T14:30:24.902Z,94794.34
2023-04-07T14:32:54.085Z,94793.63
2023-04-07T14:35:23.472Z,94794.06
2023-04-07T14:37:55.727Z,94793.13
2023-04-07T14:40:24.833Z,94804.84
2023-04-07T14:43:07.044Z,94795.94
2023-04-07T14:45:37.188Z,94792.91
2023-04-07T14:48:07.066Z,94802.00
2023-04-07T14:50:36.521Z,94797.53
2023-04-07T14:53:07.104Z,94794.22
2023-04-07T14:55:36.477Z,94791.16
2023-04-07T14:58:05.636Z,94794.94
2023-04-07T15:00:34.750Z,94797.34
2023-04-07T15:03:04.044Z,94799.44
2023-04-07T15:05:33.334Z,94801.44
2023-04-07T15:08:03.627Z,94799.22
2023-04-07T15:10:35.853Z,94800.63
2023-04-07T15:13:05.046Z,94803.47
2023-04-07T15:15:34.184Z,94792.41
2023-04-07T15:18:04.276Z,94795.56
2023-04-07T15:20:33.490Z,94793.84
2023-04-07T15:23:02.635Z,94802.75
2023-04-07T15:25:31.833Z,94794.88
2023-04-07T15:28:02.373Z,94802.63
2023-04-07T15:30:34.649Z,94802.50
2023-04-07T15:33:05.815Z,94796.06
2023-04-07T15:35:34.957Z,94806.56
2023-04-07T15:38:04.059Z,94804.75
2023-04-07T15:40:33.044Z,94814.13
2023-04-07T15:43:03.967Z,94813.31
2023-04-07T15:45:33.044Z,94814.66
2023-04-07T15:48:02.186Z,94819.31
2023-04-07T15:50:31.983Z,94812.72
2023-04-07T15:53:01.100Z,94821.53
2023-04-07T15:55:30.427Z,94826.00
2023-04-07T15:57:59.529Z,94821.13
2023-04-07T16:00:31.346Z,94836.59
2023-04-07T16:03:00.841Z,94825.25
2023-04-07T16:05:30.141Z,94834.63
2023-04-07T16:07:59.672Z,94832.75
2023-04-07T16:10:28.771Z,94835.25
2023-04-07T16:12:57.948Z,94841.09
2023-04-07T16:15:39.897Z,94839.50
2023-04-07T16:18:11.798Z,94836.25
2023-04-07T16:20:41.017Z,94845.16
2023-04-07T16:23:10.955Z,94847.31
2023-04-07T16:25:40.212Z,94847.94
2023-04-07T16:28:09.352Z,94847.25
2023-04-07T16:30:40.355Z,94851.19
2023-04-07T16:33:09.477Z,94864.19
2023-04-07T16:35:38.825Z,94878.34
2023-04-07T16:38:08.026Z,94866.34
2023-04-07T16:40:37.285Z,94866.94
2023-04-07T16:43:06.389Z,94878.63
2023-04-07T16:45:35.681Z,94868.28
2023-04-07T16:48:06.517Z,94872.53
2023-04-07T16:50:35.788Z,94880.22
2023-04-07T16:53:04.843Z,94872.88
2023-04-07T16:55:37.504Z,94879.34
2023-04-07T16:58:06.536Z,94877.66
2023-04-07T17:00:35.743Z,94873.44
2023-04-07T17:03:06.680Z,94865.72
2023-04-07T17:05:35.931Z,94873.22
2023-04-07T17:08:05.243Z,94873.81
2023-04-07T17:10:34.453Z,94877.53
2023-04-07T17:13:03.535Z,94879.94
2023-04-07T17:15:32.693Z,94881.09
2023-04-07T17:18:01.925Z,94884.75
2023-04-07T17:20:32.541Z,94877.47
2023-04-07T17:23:01.629Z,94880.09
2023-04-07T17:25:30.797Z,94888.81
2023-04-07T17:27:59.816Z,94891.47
2023-04-07T17:30:28.989Z,94889.06
2023-04-07T17:32:58.118Z,94900.53
2023-04-07T17:35:27.296Z,94897.72
2023-04-07T17:37:57.955Z,94897.34
2023-04-07T17:40:27.079Z,94901.59
2023-04-07T17:42:56.315Z,94906.47
2023-04-07T17:45:25.970Z,94912.69
2023-04-07T17:47:55.629Z,94917.13
2023-04-07T17:50:24.781Z,94921.16
2023-04-07T17:52:54.135Z,94928.78
2023-04-07T17:55:24.706Z,94928.19
2023-04-07T17:57:53.927Z,94931.03
2023-04-07T18:00:24.066Z,94938.13
2023-04-07T18:02:53.412Z,94938.16
2023-04-07T18:05:24.192Z,94940.97
2023-04-07T18:07:53.542Z,94946.19
2023-04-07T18:10:24.320Z,94938.50
2023-04-07T18:12:53.678Z,94942.78
2023-04-07T18:15:22.802Z,94943.81
2023-04-07T18:17:53.374Z,94945.84
2023-04-07T18:20:22.724Z,94947.66
2023-04-07T18:22:52.477Z,94952.94
2023-04-07T18:25:22.127Z,94957.59
2023-04-07T18:27:53.636Z,94951.78
2023-04-07T18:30:22.838Z,94960.47
2023-04-07T18:32:52.134Z,94958.66
2023-04-07T18:35:21.422Z,94959.25
2023-04-07T18:37:50.463Z,94961.28
2023-04-07T18:40:19.615Z,94969.78
2023-04-07T18:42:48.747Z,94963.53
2023-04-07T18:45:19.444Z,94970.19
2023-04-07T18:47:48.685Z,94966.16
2023-04-07T18:50:18.421Z,94969.78
2023-04-07T18:52:47.700Z,94965.13
2023-04-07T18:55:16.962Z,94974.84
2023-04-07T18:57:46.454Z,94972.22
2023-04-07T19:00:15.820Z,94971.59
2023-04-07T19:02:46.555Z,94965.56
2023-04-07T19:05:15.831Z,94968.03
2023-04-07T19:07:44.994Z,94971.47
2023-04-07T19:10:14.145Z,94968.03
2023-04-07T19:12:43.298Z,94964.03
2023-04-07T19:15:14.439Z,94974.94
2023-04-07T19:17:46.079Z,94969.91
2023-04-07T19:20:15.222Z,94970.91
2023-04-07T19:22:44.344Z,94969.91
2023-04-07T19:25:13.510Z,94983.25
2023-04-07T19:27:42.728Z,94982.84
2023-04-07T19:30:12.882Z,94982.84
2023-04-07T19:32:42.018Z,94985.47
2023-04-07T19:35:13.145Z,94977.59
2023-04-07T19:37:42.292Z,94984.25
2023-04-07T19:40:12.217Z,94984.03
2023-04-07T19:42:42.983Z,94981.81
2023-04-07T19:45:12.492Z,94979.38
2023-04-07T19:47:41.718Z,94978.38
2023-04-07T19:50:14.598Z,94986.47
2023-04-07T19:52:45.625Z,94976.56
2023-04-07T19:55:26.309Z,94981.81
2023-04-07T19:57:55.618Z,94980.81
2023-04-07T20:00:24.741Z,94984.47
2023-04-07T20:02:54.286Z,94985.09
2023-04-07T20:05:25.063Z,94991.34
2023-04-07T20:07:54.198Z,94985.25
2023-04-07T20:10:23.124Z,94984.66
2023-04-07T20:12:52.380Z,94987.50
2023-04-07T20:15:22.129Z,94985.66
2023-04-07T20:17:51.633Z,94986.50
2023-04-07T20:20:25.082Z,94995.19
2023-04-07T20:22:56.487Z,94997.00
2023-04-07T20:25:25.725Z,94991.53
2023-04-07T20:27:54.999Z,94995.59
2023-04-07T20:30:24.078Z,94998.63
2023-04-07T20:32:53.432Z,95005.91
2023-04-07T20:35:22.745Z,95009.53
2023-04-07T20:37:51.970Z,95009.34
2023-04-07T20:40:22.577Z,95009.56
2023-04-07T20:42:52.128Z,95011.38
2023-04-07T20:45:22.631Z,95011.19
2023-04-07T20:47:51.645Z,95016.03
2023-04-07T20:50:21.293Z,95017.84
2023-04-07T20:52:50.400Z,95019.84
2023-04-07T20:55:21.958Z,95023.50
2023-04-07T20:57:52.152Z,95016.19
2023-04-07T21:00:21.816Z,95014.81
2023-04-07T21:02:51.684Z,95016.41
2023-04-07T21:05:21.132Z,95017.03
2023-04-07T21:07:50.352Z,95015.16
2023-04-07T21:10:19.554Z,95012.38
2023-04-07T21:12:50.144Z,95011.75
2023-04-07T21:15:19.592Z,95009.53
2023-04-07T21:17:48.962Z,95019.25
2023-04-07T21:20:18.289Z,95012.38
2023-04-07T21:22:47.640Z,95009.53
2023-04-07T21:25:16.632Z,95004.66
2023-04-07T21:27:45.720Z,95005.28
2023-04-07T21:30:16.964Z,95008.53
2023-04-07T21:32:47.108Z,95009.53
2023-04-07T21:35:16.238Z,95012.78
2023-04-07T21:37:45.329Z,95006.31
2023-04-07T21:40:15.671Z,95000.44
2023-04-07T21:42:44.788Z,95001.06
2023-04-07T21:45:14.039Z,94993.38
2023-04-07T21:47:44.692Z,94997.19
2023-04-07T21:50:14.289Z,94996.00
2023-04-07T21:52:43.393Z,95001.66
2023-04-07T21:55:12.862Z,95003.69
2023-04-07T21:57:42.017Z,95005.09
2023-04-07T22:00:12.271Z,95000.25
2023-04-07T22:02:45.756Z,95001.88
2023-04-07T22:05:15.189Z,95006.53
2023-04-07T22:07:45.730Z,95003.09
2023-04-07T22:10:14.889Z,94995.81
2023-04-07T22:12:44.054Z,94994.19
2023-04-07T22:15:14.352Z,95005.72
2023-04-07T22:17:44.988Z,94998.03
2023-04-07T22:20:14.373Z,95001.47
2023-04-07T22:22:44.224Z,95002.28
2023-04-07T22:25:13.240Z,95001.69
2023-04-07T22:27:42.417Z,95001.47
2023-04-07T22:30:11.712Z,95002.09
2023-04-07T22:32:41.764Z,94996.03
2023-04-07T22:35:12.431Z,94996.03
2023-04-07T22:37:41.459Z,94996.22
2023-04-07T22:40:11.840Z,94995.81
2023-04-07T22:42:41.594Z,95001.06
2023-04-07T22:45:11.286Z,94994.41
2023-04-07T22:47:41.147Z,94993.81
2023-04-07T22:50:13.005Z,94994.00
2023-04-07T22:52:42.162Z,94988.34
2023-04-07T22:55:11.823Z,94994.63
2023-04-07T22:57:41.753Z,94993.38
2023-04-07T23:00:11.884Z,94995.00
2023-04-07T23:02:41.134Z,94993.59
2023-04-07T23:05:11.934Z,95000.06
2023-04-07T23:07:41.141Z,94983.28
2023-04-07T23:10:11.178Z,94992.38
2023-04-07T23:12:41.550Z,94994.22
2023-04-07T23:15:11.406Z,94988.34
2023-04-07T23:17:40.661Z,94989.53
2023-04-07T23:20:12.386Z,94988.16
2023-04-07T23:22:41.480Z,94988.97
2023-04-07T23:25:11.038Z,94981.66
2023-04-07T23:27:40.230Z,94978.03
2023-04-07T23:30:10.677Z,94977.22
2023-04-07T23:32:39.753Z,94972.78
2023-04-07T23:35:09.481Z,94966.72
2023-04-07T23:37:40.263Z,94966.53
2023-04-07T23:40:11.691Z,94960.88
2023-04-07T23:42:41.370Z,94966.13
2023-04-07T23:45:11.050Z,94970.16
2023-04-07T23:47:40.432Z,94963.72
2023-04-07T23:50:10.660Z,94967.94
2023-04-07T23:52:41.222Z,94968.94
2023-04-07T23:55:11.203Z,94965.94
2023-04-07T23:57:41.449Z,94974.63
